sensor_id;sensor_type;location;lat;lon;timestamp;P1;durP1;ratioP1;P2;durP2;ratioP2
21894;SDS011;11112;51.270;7.224;2023-06-14T00:00:35;7.78;;;5.53;;
21894;SDS011;11112;51.270;7.224;2023-06-14T00:03:09;7.45;;;5.30;;
21894;SDS011;11112;51.270;7.224;2023-06-14T00:05:37;10.32;;;5.32;;
21894;SDS011;11112;51.270;7.224;2023-06-14T00:08:08;6.97;;;5.40;;
21894;SDS011;11112;51.270;7.224;2023-06-14T00:10:37;7.68;;;5.75;;
21894;SDS011;11112;51.270;7.224;2023-06-14T00:13:07;9.50;;;5.53;;
21894;SDS011;11112;51.270;7.224;2023-06-14T00:15:35;6.60;;;5.10;;
21894;SDS011;11112;51.270;7.224;2023-06-14T00:18:03;6.10;;;5.20;;
21894;SDS011;11112;51.270;7.224;2023-06-14T00:20:32;10.35;;;5.30;;
21894;SDS011;11112;51.270;7.224;2023-06-14T00:22:59;8.00;;;5.20;;
21894;SDS011;11112;51.270;7.224;2023-06-14T00:25:27;8.25;;;5.65;;
21894;SDS011;11112;51.270;7.224;2023-06-14T00:27:54;7.28;;;5.25;;
21894;SDS011;11112;51.270;7.224;2023-06-14T00:30:22;6.68;;;5.35;;
21894;SDS011;11112;51.270;7.224;2023-06-14T00:32:49;7.80;;;5.00;;
21894;SDS011;11112;51.270;7.224;2023-06-14T00:35:17;10.95;;;5.03;;
21894;SDS011;11112;51.270;7.224;2023-06-14T00:37:45;8.57;;;5.40;;
21894;SDS011;11112;51.270;7.224;2023-06-14T00:40:12;9.48;;;5.38;;
21894;SDS011;11112;51.270;7.224;2023-06-14T00:42:39;8.98;;;5.25;;
21894;SDS011;11112;51.270;7.224;2023-06-14T00:45:06;8.23;;;5.47;;
21894;SDS011;11112;51.270;7.224;2023-06-14T00:47:35;10.98;;;5.38;;
21894;SDS011;11112;51.270;7.224;2023-06-14T00:50:05;7.93;;;5.28;;
21894;SDS011;11112;51.270;7.224;2023-06-14T00:52:34;9.50;;;5.40;;
21894;SDS011;11112;51.270;7.224;2023-06-14T00:55:03;7.07;;;5.07;;
21894;SDS011;11112;51.270;7.224;2023-06-14T00:57:31;12.23;;;5.65;;
21894;SDS011;11112;51.270;7.224;2023-06-14T00:59:58;6.72;;;5.22;;
21894;SDS011;11112;51.270;7.224;2023-06-14T01:02:25;8.45;;;5.30;;
21894;SDS011;11112;51.270;7.224;2023-06-14T01:04:52;6.65;;;5.32;;
21894;SDS011;11112;51.270;7.224;2023-06-14T01:07:23;7.70;;;5.50;;
21894;SDS011;11112;51.270;7.224;2023-06-14T01:10:08;9.13;;;5.50;;
21894;SDS011;11112;51.270;7.224;2023-06-14T01:12:49;10.90;;;5.53;;
21894;SDS011;11112;51.270;7.224;2023-06-14T01:15:23;7.32;;;5.47;;
21894;SDS011;11112;51.270;7.224;2023-06-14T01:17:51;8.07;;;5.43;;
21894;SDS011;11112;51.270;7.224;2023-06-14T01:20:19;14.63;;;5.95;;
21894;SDS011;11112;51.270;7.224;2023-06-14T01:22:52;9.93;;;5.70;;
21894;SDS011;11112;51.270;7.224;2023-06-14T01:25:20;8.63;;;5.53;;
21894;SDS011;11112;51.270;7.224;2023-06-14T01:27:48;8.48;;;5.65;;
21894;SDS011;11112;51.270;7.224;2023-06-14T01:30:17;9.85;;;5.53;;
21894;SDS011;11112;51.270;7.224;2023-06-14T01:32:46;8.60;;;5.55;;
21894;SDS011;11112;51.270;7.224;2023-06-14T01:35:15;10.55;;;5.72;;
21894;SDS011;11112;51.270;7.224;2023-06-14T01:37:43;9.70;;;5.70;;
21894;SDS011;11112;51.270;7.224;2023-06-14T01:40:12;6.82;;;5.13;;
21894;SDS011;11112;51.270;7.224;2023-06-14T01:42:40;8.27;;;5.90;;
21894;SDS011;11112;51.270;7.224;2023-06-14T01:45:08;8.15;;;5.05;;
21894;SDS011;11112;51.270;7.224;2023-06-14T01:47:36;8.52;;;5.57;;
21894;SDS011;11112;51.270;7.224;2023-06-14T01:50:04;7.45;;;5.55;;
21894;SDS011;11112;51.270;7.224;2023-06-14T01:52:32;9.05;;;5.40;;
21894;SDS011;11112;51.270;7.224;2023-06-14T01:54:59;9.63;;;5.60;;
21894;SDS011;11112;51.270;7.224;2023-06-14T01:57:30;7.75;;;5.68;;
21894;SDS011;11112;51.270;7.224;2023-06-14T01:59:57;6.75;;;5.30;;
21894;SDS011;11112;51.270;7.224;2023-06-14T02:02:24;7.63;;;5.35;;
21894;SDS011;11112;51.270;7.224;2023-06-14T02:04:51;7.95;;;5.18;;
21894;SDS011;11112;51.270;7.224;2023-06-14T02:07:22;7.93;;;5.70;;
21894;SDS011;11112;51.270;7.224;2023-06-14T02:09:49;7.40;;;5.53;;
21894;SDS011;11112;51.270;7.224;2023-06-14T02:12:16;10.10;;;5.88;;
21894;SDS011;11112;51.270;7.224;2023-06-14T02:14:44;9.57;;;5.75;;
21894;SDS011;11112;51.270;7.224;2023-06-14T02:17:11;6.63;;;5.63;;
21894;SDS011;11112;51.270;7.224;2023-06-14T02:19:39;9.85;;;5.55;;
21894;SDS011;11112;51.270;7.224;2023-06-14T02:22:07;8.00;;;5.38;;
21894;SDS011;11112;51.270;7.224;2023-06-14T02:24:34;7.75;;;5.47;;
21894;SDS011;11112;51.270;7.224;2023-06-14T02:27:01;7.38;;;5.82;;
21894;SDS011;11112;51.270;7.224;2023-06-14T02:29:29;8.05;;;5.70;;
21894;SDS011;11112;51.270;7.224;2023-06-14T02:31:57;8.93;;;5.57;;
21894;SDS011;11112;51.270;7.224;2023-06-14T02:34:24;9.23;;;5.53;;
21894;SDS011;11112;51.270;7.224;2023-06-14T02:36:52;10.05;;;5.70;;
21894;SDS011;11112;51.270;7.224;2023-06-14T02:39:19;7.80;;;5.72;;
21894;SDS011;11112;51.270;7.224;2023-06-14T02:41:48;8.23;;;5.57;;
21894;SDS011;11112;51.270;7.224;2023-06-14T02:44:17;9.27;;;5.57;;
21894;SDS011;11112;51.270;7.224;2023-06-14T02:46:44;6.70;;;5.20;;
21894;SDS011;11112;51.270;7.224;2023-06-14T02:49:13;8.23;;;5.45;;
21894;SDS011;11112;51.270;7.224;2023-06-14T02:51:40;8.23;;;5.57;;
21894;SDS011;11112;51.270;7.224;2023-06-14T02:54:07;8.27;;;5.72;;
21894;SDS011;11112;51.270;7.224;2023-06-14T02:56:34;9.05;;;5.53;;
21894;SDS011;11112;51.270;7.224;2023-06-14T02:59:01;8.95;;;5.43;;
21894;SDS011;11112;51.270;7.224;2023-06-14T03:01:28;8.55;;;5.82;;
21894;SDS011;11112;51.270;7.224;2023-06-14T03:03:59;7.78;;;5.40;;
21894;SDS011;11112;51.270;7.224;2023-06-14T03:06:29;8.02;;;5.40;;
21894;SDS011;11112;51.270;7.224;2023-06-14T03:08:57;8.45;;;5.60;;
21894;SDS011;11112;51.270;7.224;2023-06-14T03:11:26;7.53;;;5.40;;
21894;SDS011;11112;51.270;7.224;2023-06-14T03:13:53;7.25;;;5.57;;
21894;SDS011;11112;51.270;7.224;2023-06-14T03:16:21;8.82;;;5.57;;
21894;SDS011;11112;51.270;7.224;2023-06-14T03:18:49;8.45;;;5.47;;
21894;SDS011;11112;51.270;7.224;2023-06-14T03:21:17;9.27;;;5.68;;
21894;SDS011;11112;51.270;7.224;2023-06-14T03:23:46;7.68;;;5.43;;
21894;SDS011;11112;51.270;7.224;2023-06-14T03:26:13;8.50;;;5.80;;
21894;SDS011;11112;51.270;7.224;2023-06-14T03:28:42;8.55;;;5.53;;
21894;SDS011;11112;51.270;7.224;2023-06-14T03:31:10;9.38;;;5.78;;
21894;SDS011;11112;51.270;7.224;2023-06-14T03:33:37;7.78;;;5.70;;
21894;SDS011;11112;51.270;7.224;2023-06-14T03:36:04;8.80;;;5.60;;
21894;SDS011;11112;51.270;7.224;2023-06-14T03:38:32;10.13;;;5.78;;
21894;SDS011;11112;51.270;7.224;2023-06-14T03:41:01;8.48;;;5.63;;
21894;SDS011;11112;51.270;7.224;2023-06-14T03:43:28;8.73;;;5.78;;
21894;SDS011;11112;51.270;7.224;2023-06-14T03:45:56;9.70;;;5.82;;
21894;SDS011;11112;51.270;7.224;2023-06-14T03:48:23;8.57;;;5.80;;
21894;SDS011;11112;51.270;7.224;2023-06-14T03:50:50;10.15;;;6.28;;
21894;SDS011;11112;51.270;7.224;2023-06-14T03:53:18;9.85;;;5.55;;
21894;SDS011;11112;51.270;7.224;2023-06-14T03:55:48;7.78;;;5.70;;
21894;SDS011;11112;51.270;7.224;2023-06-14T03:58:18;9.40;;;5.82;;
21894;SDS011;11112;51.270;7.224;2023-06-14T04:00:46;10.00;;;5.90;;
21894;SDS011;11112;51.270;7.224;2023-06-14T04:03:13;10.07;;;5.72;;
21894;SDS011;11112;51.270;7.224;2023-06-14T04:05:40;9.82;;;5.55;;
21894;SDS011;11112;51.270;7.224;2023-06-14T04:08:08;8.07;;;5.68;;
21894;SDS011;11112;51.270;7.224;2023-06-14T04:10:35;8.02;;;5.43;;
21894;SDS011;11112;51.270;7.224;2023-06-14T04:13:03;12.55;;;6.18;;
21894;SDS011;11112;51.270;7.224;2023-06-14T04:15:33;11.63;;;5.80;;
21894;SDS011;11112;51.270;7.224;2023-06-14T04:18:00;10.25;;;6.40;;
21894;SDS011;11112;51.270;7.224;2023-06-14T04:20:27;12.88;;;6.40;;
21894;SDS011;11112;51.270;7.224;2023-06-14T04:22:56;8.95;;;6.20;;
21894;SDS011;11112;51.270;7.224;2023-06-14T04:25:23;14.50;;;7.03;;
21894;SDS011;11112;51.270;7.224;2023-06-14T04:27:53;12.73;;;6.75;;
21894;SDS011;11112;51.270;7.224;2023-06-14T04:30:20;13.95;;;6.82;;
21894;SDS011;11112;51.270;7.224;2023-06-14T04:32:53;12.18;;;6.07;;
21894;SDS011;11112;51.270;7.224;2023-06-14T04:35:20;11.55;;;6.45;;
21894;SDS011;11112;51.270;7.224;2023-06-14T04:37:48;12.02;;;6.38;;
21894;SDS011;11112;51.270;7.224;2023-06-14T04:40:16;12.40;;;6.20;;
21894;SDS011;11112;51.270;7.224;2023-06-14T04:42:43;10.10;;;6.00;;
21894;SDS011;11112;51.270;7.224;2023-06-14T04:45:11;10.45;;;5.70;;
21894;SDS011;11112;51.270;7.224;2023-06-14T04:47:40;15.15;;;6.22;;
21894;SDS011;11112;51.270;7.224;2023-06-14T04:50:09;10.50;;;5.75;;
21894;SDS011;11112;51.270;7.224;2023-06-14T04:52:37;8.98;;;5.68;;
21894;SDS011;11112;51.270;7.224;2023-06-14T04:55:05;13.77;;;5.72;;
21894;SDS011;11112;51.270;7.224;2023-06-14T04:57:33;10.68;;;5.80;;
21894;SDS011;11112;51.270;7.224;2023-06-14T05:00:00;10.75;;;5.38;;
21894;SDS011;11112;51.270;7.224;2023-06-14T05:02:29;11.30;;;5.80;;
21894;SDS011;11112;51.270;7.224;2023-06-14T05:04:56;8.38;;;5.65;;
21894;SDS011;11112;51.270;7.224;2023-06-14T05:07:25;8.35;;;5.28;;
21894;SDS011;11112;51.270;7.224;2023-06-14T05:09:52;15.65;;;6.50;;
21894;SDS011;11112;51.270;7.224;2023-06-14T05:12:19;13.25;;;6.20;;
21894;SDS011;11112;51.270;7.224;2023-06-14T05:14:48;12.02;;;5.80;;
21894;SDS011;11112;51.270;7.224;2023-06-14T05:17:16;11.90;;;5.43;;
21894;SDS011;11112;51.270;7.224;2023-06-14T05:19:45;17.13;;;5.80;;
21894;SDS011;11112;51.270;7.224;2023-06-14T05:22:12;17.38;;;6.22;;
21894;SDS011;11112;51.270;7.224;2023-06-14T05:24:40;12.48;;;5.47;;
21894;SDS011;11112;51.270;7.224;2023-06-14T05:27:08;11.85;;;5.55;;
21894;SDS011;11112;51.270;7.224;2023-06-14T05:29:35;9.90;;;4.93;;
21894;SDS011;11112;51.270;7.224;2023-06-14T05:32:03;13.50;;;4.97;;
21894;SDS011;11112;51.270;7.224;2023-06-14T05:34:30;12.75;;;4.95;;
21894;SDS011;11112;51.270;7.224;2023-06-14T05:36:58;15.10;;;5.30;;
21894;SDS011;11112;51.270;7.224;2023-06-14T05:39:25;12.45;;;5.07;;
21894;SDS011;11112;51.270;7.224;2023-06-14T05:41:53;9.18;;;4.90;;
21894;SDS011;11112;51.270;7.224;2023-06-14T05:44:20;14.57;;;5.13;;
21894;SDS011;11112;51.270;7.224;2023-06-14T05:46:48;11.13;;;4.60;;
21894;SDS011;11112;51.270;7.224;2023-06-14T05:49:15;11.55;;;4.82;;
21894;SDS011;11112;51.270;7.224;2023-06-14T05:51:42;9.77;;;4.63;;
21894;SDS011;11112;51.270;7.224;2023-06-14T05:54:09;11.02;;;4.63;;
21894;SDS011;11112;51.270;7.224;2023-06-14T05:56:36;15.23;;;5.43;;
21894;SDS011;11112;51.270;7.224;2023-06-14T05:59:05;10.57;;;4.50;;
21894;SDS011;11112;51.270;7.224;2023-06-14T06:01:32;10.75;;;4.60;;
21894;SDS011;11112;51.270;7.224;2023-06-14T06:04:01;14.20;;;4.68;;
21894;SDS011;11112;51.270;7.224;2023-06-14T06:06:28;15.68;;;4.82;;
21894;SDS011;11112;51.270;7.224;2023-06-14T06:08:56;18.67;;;5.10;;
21894;SDS011;11112;51.270;7.224;2023-06-14T06:11:23;23.13;;;4.50;;
21894;SDS011;11112;51.270;7.224;2023-06-14T06:13:50;14.70;;;4.80;;
21894;SDS011;11112;51.270;7.224;2023-06-14T06:16:19;13.18;;;4.50;;
21894;SDS011;11112;51.270;7.224;2023-06-14T06:18:46;9.68;;;4.07;;
21894;SDS011;11112;51.270;7.224;2023-06-14T06:21:13;8.57;;;3.85;;
21894;SDS011;11112;51.270;7.224;2023-06-14T06:23:41;7.05;;;4.00;;
21894;SDS011;11112;51.270;7.224;2023-06-14T06:26:08;9.50;;;3.90;;
21894;SDS011;11112;51.270;7.224;2023-06-14T06:28:35;11.10;;;3.58;;
21894;SDS011;11112;51.270;7.224;2023-06-14T06:31:02;7.93;;;3.90;;
21894;SDS011;11112;51.270;7.224;2023-06-14T06:33:32;9.50;;;3.78;;
21894;SDS011;11112;51.270;7.224;2023-06-14T06:36:02;8.43;;;3.85;;
21894;SDS011;11112;51.270;7.224;2023-06-14T06:38:33;11.38;;;3.80;;
21894;SDS011;11112;51.270;7.224;2023-06-14T06:41:01;8.73;;;3.65;;
21894;SDS011;11112;51.270;7.224;2023-06-14T06:43:33;14.13;;;3.60;;
21894;SDS011;11112;51.270;7.224;2023-06-14T06:46:10;7.68;;;3.67;;
21894;SDS011;11112;51.270;7.224;2023-06-14T06:48:39;10.00;;;3.63;;
21894;SDS011;11112;51.270;7.224;2023-06-14T06:51:10;9.05;;;3.53;;
21894;SDS011;11112;51.270;7.224;2023-06-14T06:53:38;7.53;;;3.50;;
21894;SDS011;11112;51.270;7.224;2023-06-14T06:56:05;8.27;;;3.05;;
21894;SDS011;11112;51.270;7.224;2023-06-14T06:58:32;8.07;;;3.05;;
21894;SDS011;11112;51.270;7.224;2023-06-14T07:01:06;7.07;;;2.70;;
21894;SDS011;11112;51.270;7.224;2023-06-14T07:03:34;11.57;;;2.75;;
21894;SDS011;11112;51.270;7.224;2023-06-14T07:06:03;8.15;;;2.70;;
21894;SDS011;11112;51.270;7.224;2023-06-14T07:08:31;7.88;;;2.30;;
21894;SDS011;11112;51.270;7.224;2023-06-14T07:10:58;10.18;;;2.40;;
21894;SDS011;11112;51.270;7.224;2023-06-14T07:13:25;6.00;;;2.35;;
21894;SDS011;11112;51.270;7.224;2023-06-14T07:15:54;5.40;;;1.70;;
21894;SDS011;11112;51.270;7.224;2023-06-14T07:18:21;2.85;;;1.58;;
21894;SDS011;11112;51.270;7.224;2023-06-14T07:20:48;9.05;;;2.50;;
21894;SDS011;11112;51.270;7.224;2023-06-14T07:23:17;9.23;;;2.80;;
21894;SDS011;11112;51.270;7.224;2023-06-14T07:25:44;9.57;;;2.53;;
21894;SDS011;11112;51.270;7.224;2023-06-14T07:28:12;7.03;;;2.60;;
21894;SDS011;11112;51.270;7.224;2023-06-14T07:30:39;7.43;;;2.40;;
21894;SDS011;11112;51.270;7.224;2023-06-14T07:33:07;9.38;;;2.40;;
21894;SDS011;11112;51.270;7.224;2023-06-14T07:35:35;8.43;;;2.33;;
21894;SDS011;11112;51.270;7.224;2023-06-14T07:38:02;8.90;;;2.33;;
21894;SDS011;11112;51.270;7.224;2023-06-14T07:40:31;13.05;;;2.33;;
21894;SDS011;11112;51.270;7.224;2023-06-14T07:42:58;4.35;;;2.05;;
21894;SDS011;11112;51.270;7.224;2023-06-14T07:45:26;9.00;;;2.22;;
21894;SDS011;11112;51.270;7.224;2023-06-14T07:47:54;8.98;;;2.28;;
21894;SDS011;11112;51.270;7.224;2023-06-14T07:50:21;3.92;;;2.10;;
21894;SDS011;11112;51.270;7.224;2023-06-14T07:52:49;5.50;;;1.90;;
21894;SDS011;11112;51.270;7.224;2023-06-14T07:55:16;3.85;;;2.05;;
21894;SDS011;11112;51.270;7.224;2023-06-14T07:57:45;6.28;;;2.17;;
21894;SDS011;11112;51.270;7.224;2023-06-14T08:00:13;5.05;;;1.92;;
21894;SDS011;11112;51.270;7.224;2023-06-14T08:02:43;8.77;;;2.00;;
21894;SDS011;11112;51.270;7.224;2023-06-14T08:05:11;5.38;;;1.60;;
21894;SDS011;11112;51.270;7.224;2023-06-14T08:07:39;3.47;;;1.90;;
21894;SDS011;11112;51.270;7.224;2023-06-14T08:10:07;5.50;;;1.60;;
21894;SDS011;11112;51.270;7.224;2023-06-14T08:12:36;6.57;;;2.08;;
21894;SDS011;11112;51.270;7.224;2023-06-14T08:15:06;4.32;;;1.73;;
21894;SDS011;11112;51.270;7.224;2023-06-14T08:17:34;7.07;;;1.80;;
21894;SDS011;11112;51.270;7.224;2023-06-14T08:20:02;5.97;;;1.70;;
21894;SDS011;11112;51.270;7.224;2023-06-14T08:22:33;3.70;;;1.77;;
21894;SDS011;11112;51.270;7.224;2023-06-14T08:25:01;5.68;;;2.03;;
21894;SDS011;11112;51.270;7.224;2023-06-14T08:27:29;5.43;;;1.77;;
21894;SDS011;11112;51.270;7.224;2023-06-14T08:29:57;7.75;;;1.83;;
21894;SDS011;11112;51.270;7.224;2023-06-14T08:32:25;3.50;;;1.70;;
21894;SDS011;11112;51.270;7.224;2023-06-14T08:34:53;4.85;;;1.67;;
21894;SDS011;11112;51.270;7.224;2023-06-14T08:37:21;4.82;;;1.80;;
21894;SDS011;11112;51.270;7.224;2023-06-14T08:39:49;3.47;;;1.70;;
21894;SDS011;11112;51.270;7.224;2023-06-14T08:42:17;5.72;;;1.70;;
21894;SDS011;11112;51.270;7.224;2023-06-14T08:44:47;5.93;;;1.40;;
21894;SDS011;11112;51.270;7.224;2023-06-14T08:47:15;2.40;;;1.38;;
21894;SDS011;11112;51.270;7.224;2023-06-14T08:49:45;5.63;;;1.40;;
21894;SDS011;11112;51.270;7.224;2023-06-14T08:52:13;5.75;;;1.50;;
21894;SDS011;11112;51.270;7.224;2023-06-14T08:54:46;2.50;;;1.20;;
21894;SDS011;11112;51.270;7.224;2023-06-14T08:57:13;5.50;;;1.20;;
21894;SDS011;11112;51.270;7.224;2023-06-14T08:59:45;8.35;;;1.50;;
21894;SDS011;11112;51.270;7.224;2023-06-14T09:02:17;3.85;;;1.38;;
21894;SDS011;11112;51.270;7.224;2023-06-14T09:04:48;7.07;;;1.38;;
21894;SDS011;11112;51.270;7.224;2023-06-14T09:07:15;10.52;;;1.50;;
21894;SDS011;11112;51.270;7.224;2023-06-14T09:09:43;4.38;;;1.50;;
21894;SDS011;11112;51.270;7.224;2023-06-14T09:12:11;16.30;;;1.50;;
21894;SDS011;11112;51.270;7.224;2023-06-14T09:14:38;4.13;;;1.40;;
21894;SDS011;11112;51.270;7.224;2023-06-14T09:17:07;3.60;;;1.50;;
21894;SDS011;11112;51.270;7.224;2023-06-14T09:19:34;5.00;;;1.52;;
21894;SDS011;11112;51.270;7.224;2023-06-14T09:22:04;6.60;;;1.65;;
21894;SDS011;11112;51.270;7.224;2023-06-14T09:24:36;3.38;;;1.40;;
21894;SDS011;11112;51.270;7.224;2023-06-14T09:27:04;10.32;;;1.67;;
21894;SDS011;11112;51.270;7.224;2023-06-14T09:29:33;9.43;;;1.67;;
21894;SDS011;11112;51.270;7.224;2023-06-14T09:32:00;4.15;;;1.52;;
21894;SDS011;11112;51.270;7.224;2023-06-14T09:34:27;2.97;;;1.45;;
21894;SDS011;11112;51.270;7.224;2023-06-14T09:36:54;4.30;;;1.40;;
21894;SDS011;11112;51.270;7.224;2023-06-14T09:39:23;2.13;;;1.30;;
21894;SDS011;11112;51.270;7.224;2023-06-14T09:41:50;3.97;;;1.40;;
21894;SDS011;11112;51.270;7.224;2023-06-14T09:44:17;5.82;;;1.67;;
21894;SDS011;11112;51.270;7.224;2023-06-14T09:46:45;6.28;;;1.60;;
21894;SDS011;11112;51.270;7.224;2023-06-14T09:49:13;6.10;;;1.70;;
21894;SDS011;11112;51.270;7.224;2023-06-14T09:51:42;6.68;;;1.52;;
21894;SDS011;11112;51.270;7.224;2023-06-14T09:54:11;5.85;;;1.60;;
21894;SDS011;11112;51.270;7.224;2023-06-14T09:56:44;6.47;;;1.50;;
21894;SDS011;11112;51.270;7.224;2023-06-14T09:59:12;9.48;;;1.70;;
21894;SDS011;11112;51.270;7.224;2023-06-14T10:01:41;3.97;;;1.50;;
21894;SDS011;11112;51.270;7.224;2023-06-14T10:04:10;11.00;;;1.67;;
21894;SDS011;11112;51.270;7.224;2023-06-14T10:06:38;8.30;;;1.80;;
21894;SDS011;11112;51.270;7.224;2023-06-14T10:09:09;8.48;;;1.80;;
21894;SDS011;11112;51.270;7.224;2023-06-14T10:11:37;2.90;;;1.70;;
21894;SDS011;11112;51.270;7.224;2023-06-14T10:14:10;7.60;;;1.70;;
21894;SDS011;11112;51.270;7.224;2023-06-14T10:16:45;7.18;;;1.60;;
21894;SDS011;11112;51.270;7.224;2023-06-14T10:19:18;8.63;;;3.75;;
21894;SDS011;11112;51.270;7.224;2023-06-14T10:21:51;8.40;;;2.95;;
21894;SDS011;11112;51.270;7.224;2023-06-14T10:24:28;4.45;;;1.55;;
21894;SDS011;11112;51.270;7.224;2023-06-14T10:26:59;3.80;;;1.67;;
21894;SDS011;11112;51.270;7.224;2023-06-14T10:29:28;4.85;;;1.75;;
21894;SDS011;11112;51.270;7.224;2023-06-14T10:31:57;4.03;;;2.58;;
21894;SDS011;11112;51.270;7.224;2023-06-14T10:34:26;4.95;;;2.38;;
21894;SDS011;11112;51.270;7.224;2023-06-14T10:37:04;7.00;;;3.13;;
21894;SDS011;11112;51.270;7.224;2023-06-14T10:39:39;3.90;;;2.25;;
21894;SDS011;11112;51.270;7.224;2023-06-14T10:42:07;4.93;;;2.13;;
21894;SDS011;11112;51.270;7.224;2023-06-14T10:44:43;2.75;;;1.42;;
21894;SDS011;11112;51.270;7.224;2023-06-14T10:47:25;3.10;;;1.10;;
21894;SDS011;11112;51.270;7.224;2023-06-14T10:49:53;3.75;;;1.38;;
21894;SDS011;11112;51.270;7.224;2023-06-14T10:52:23;2.63;;;1.10;;
21894;SDS011;11112;51.270;7.224;2023-06-14T10:54:56;8.30;;;1.50;;
21894;SDS011;11112;51.270;7.224;2023-06-14T10:57:38;2.70;;;1.33;;
21894;SDS011;11112;51.270;7.224;2023-06-14T11:00:09;5.15;;;1.63;;
21894;SDS011;11112;51.270;7.224;2023-06-14T11:02:49;5.05;;;1.20;;
21894;SDS011;11112;51.270;7.224;2023-06-14T11:05:31;4.85;;;1.00;;
21894;SDS011;11112;51.270;7.224;2023-06-14T11:08:18;4.53;;;1.23;;
21894;SDS011;11112;51.270;7.224;2023-06-14T11:11:31;3.33;;;1.30;;
21894;SDS011;11112;51.270;7.224;2023-06-14T11:13:59;1.75;;;1.00;;
21894;SDS011;11112;51.270;7.224;2023-06-14T11:16:29;3.63;;;1.20;;
21894;SDS011;11112;51.270;7.224;2023-06-14T11:18:58;4.85;;;1.08;;
21894;SDS011;11112;51.270;7.224;2023-06-14T11:21:29;5.15;;;1.00;;
21894;SDS011;11112;51.270;7.224;2023-06-14T11:23:58;3.38;;;1.13;;
21894;SDS011;11112;51.270;7.224;2023-06-14T11:26:26;8.10;;;1.20;;
21894;SDS011;11112;51.270;7.224;2023-06-14T11:28:57;5.13;;;1.13;;
21894;SDS011;11112;51.270;7.224;2023-06-14T11:31:25;2.13;;;1.17;;
21894;SDS011;11112;51.270;7.224;2023-06-14T11:33:55;5.97;;;1.17;;
21894;SDS011;11112;51.270;7.224;2023-06-14T11:36:23;5.10;;;1.08;;
21894;SDS011;11112;51.270;7.224;2023-06-14T11:38:57;2.67;;;1.08;;
21894;SDS011;11112;51.270;7.224;2023-06-14T11:41:31;5.13;;;1.20;;
21894;SDS011;11112;51.270;7.224;2023-06-14T11:44:00;4.40;;;1.20;;
21894;SDS011;11112;51.270;7.224;2023-06-14T11:46:29;2.78;;;1.10;;
21894;SDS011;11112;51.270;7.224;2023-06-14T11:48:56;7.75;;;1.20;;
21894;SDS011;11112;51.270;7.224;2023-06-14T11:51:24;4.82;;;1.10;;
21894;SDS011;11112;51.270;7.224;2023-06-14T11:53:51;6.85;;;1.30;;
21894;SDS011;11112;51.270;7.224;2023-06-14T11:56:18;6.25;;;1.10;;
21894;SDS011;11112;51.270;7.224;2023-06-14T11:58:46;6.53;;;1.20;;
21894;SDS011;11112;51.270;7.224;2023-06-14T12:01:14;6.80;;;1.20;;
21894;SDS011;11112;51.270;7.224;2023-06-14T12:03:48;3.90;;;1.08;;
21894;SDS011;11112;51.270;7.224;2023-06-14T12:06:15;4.80;;;1.25;;
21894;SDS011;11112;51.270;7.224;2023-06-14T12:08:55;8.45;;;1.30;;
21894;SDS011;11112;51.270;7.224;2023-06-14T12:11:22;3.75;;;1.20;;
21894;SDS011;11112;51.270;7.224;2023-06-14T12:13:49;7.30;;;1.70;;
21894;SDS011;11112;51.270;7.224;2023-06-14T12:16:16;3.67;;;1.30;;
21894;SDS011;11112;51.270;7.224;2023-06-14T12:18:43;4.43;;;1.30;;
21894;SDS011;11112;51.270;7.224;2023-06-14T12:21:12;6.88;;;1.50;;
21894;SDS011;11112;51.270;7.224;2023-06-14T12:23:42;6.47;;;1.50;;
21894;SDS011;11112;51.270;7.224;2023-06-14T12:26:20;3.70;;;1.40;;
21894;SDS011;11112;51.270;7.224;2023-06-14T12:28:47;4.45;;;1.30;;
21894;SDS011;11112;51.270;7.224;2023-06-14T12:31:15;8.23;;;1.50;;
21894;SDS011;11112;51.270;7.224;2023-06-14T12:33:43;7.22;;;1.38;;
21894;SDS011;11112;51.270;7.224;2023-06-14T12:36:15;3.53;;;1.50;;
21894;SDS011;11112;51.270;7.224;2023-06-14T12:38:42;4.07;;;1.77;;
21894;SDS011;11112;51.270;7.224;2023-06-14T12:41:11;3.15;;;1.42;;
21894;SDS011;11112;51.270;7.224;2023-06-14T12:43:39;2.55;;;1.40;;
21894;SDS011;11112;51.270;7.224;2023-06-14T12:46:06;4.10;;;1.70;;
21894;SDS011;11112;51.270;7.224;2023-06-14T12:48:33;10.00;;;1.40;;
21894;SDS011;11112;51.270;7.224;2023-06-14T12:51:00;2.72;;;1.30;;
21894;SDS011;11112;51.270;7.224;2023-06-14T12:53:28;4.50;;;1.40;;
21894;SDS011;11112;51.270;7.224;2023-06-14T12:55:56;3.30;;;1.20;;
21894;SDS011;11112;51.270;7.224;2023-06-14T12:58:23;3.38;;;1.65;;
21894;SDS011;11112;51.270;7.224;2023-06-14T13:00:50;3.28;;;1.20;;
21894;SDS011;11112;51.270;7.224;2023-06-14T13:03:17;3.30;;;1.30;;
21894;SDS011;11112;51.270;7.224;2023-06-14T13:05:44;7.20;;;1.40;;
21894;SDS011;11112;51.270;7.224;2023-06-14T13:08:11;4.47;;;1.60;;
21894;SDS011;11112;51.270;7.224;2023-06-14T13:10:40;3.63;;;1.30;;
21894;SDS011;11112;51.270;7.224;2023-06-14T13:13:07;6.68;;;1.40;;
21894;SDS011;11112;51.270;7.224;2023-06-14T13:15:34;3.47;;;1.50;;
21894;SDS011;11112;51.270;7.224;2023-06-14T13:18:01;2.28;;;1.40;;
21894;SDS011;11112;51.270;7.224;2023-06-14T13:20:29;4.50;;;1.70;;
21894;SDS011;11112;51.270;7.224;2023-06-14T13:22:56;4.18;;;1.40;;
21894;SDS011;11112;51.270;7.224;2023-06-14T13:25:23;6.82;;;1.60;;
21894;SDS011;11112;51.270;7.224;2023-06-14T13:27:52;5.13;;;1.65;;
21894;SDS011;11112;51.270;7.224;2023-06-14T13:30:19;3.85;;;1.33;;
21894;SDS011;11112;51.270;7.224;2023-06-14T13:32:47;3.05;;;1.45;;
21894;SDS011;11112;51.270;7.224;2023-06-14T13:35:16;5.82;;;1.25;;
21894;SDS011;11112;51.270;7.224;2023-06-14T13:37:43;4.13;;;1.38;;
21894;SDS011;11112;51.270;7.224;2023-06-14T13:40:11;6.00;;;1.52;;
21894;SDS011;11112;51.270;7.224;2023-06-14T13:42:38;3.38;;;1.38;;
21894;SDS011;11112;51.270;7.224;2023-06-14T13:45:09;3.42;;;1.65;;
21894;SDS011;11112;51.270;7.224;2023-06-14T13:47:37;3.25;;;1.50;;
21894;SDS011;11112;51.270;7.224;2023-06-14T13:50:06;4.63;;;1.60;;
21894;SDS011;11112;51.270;7.224;2023-06-14T13:52:34;2.65;;;1.50;;
21894;SDS011;11112;51.270;7.224;2023-06-14T13:55:01;4.13;;;1.70;;
21894;SDS011;11112;51.270;7.224;2023-06-14T13:57:33;3.65;;;1.52;;
21894;SDS011;11112;51.270;7.224;2023-06-14T14:00:04;3.30;;;1.40;;
21894;SDS011;11112;51.270;7.224;2023-06-14T14:02:49;3.88;;;1.40;;
21894;SDS011;11112;51.270;7.224;2023-06-14T14:05:20;3.10;;;1.33;;
21894;SDS011;11112;51.270;7.224;2023-06-14T14:07:54;2.15;;;1.38;;
21894;SDS011;11112;51.270;7.224;2023-06-14T14:10:22;4.55;;;1.40;;
21894;SDS011;11112;51.270;7.224;2023-06-14T14:12:50;3.72;;;1.40;;
21894;SDS011;11112;51.270;7.224;2023-06-14T14:15:19;7.65;;;1.60;;
21894;SDS011;11112;51.270;7.224;2023-06-14T14:17:46;3.63;;;1.50;;
21894;SDS011;11112;51.270;7.224;2023-06-14T14:20:13;3.72;;;1.52;;
21894;SDS011;11112;51.270;7.224;2023-06-14T14:22:42;7.43;;;1.45;;
21894;SDS011;11112;51.270;7.224;2023-06-14T14:25:09;4.72;;;1.38;;
21894;SDS011;11112;51.270;7.224;2023-06-14T14:27:37;4.75;;;1.70;;
21894;SDS011;11112;51.270;7.224;2023-06-14T14:30:05;4.47;;;1.65;;
21894;SDS011;11112;51.270;7.224;2023-06-14T14:32:34;4.97;;;1.40;;
21894;SDS011;11112;51.270;7.224;2023-06-14T14:35:02;2.90;;;1.45;;
21894;SDS011;11112;51.270;7.224;2023-06-14T14:37:30;3.50;;;1.52;;
21894;SDS011;11112;51.270;7.224;2023-06-14T14:39:57;2.08;;;1.42;;
21894;SDS011;11112;51.270;7.224;2023-06-14T14:42:24;2.65;;;1.52;;
21894;SDS011;11112;51.270;7.224;2023-06-14T14:44:51;2.20;;;1.23;;
21894;SDS011;11112;51.270;7.224;2023-06-14T14:47:18;3.17;;;1.42;;
21894;SDS011;11112;51.270;7.224;2023-06-14T14:49:47;4.32;;;1.50;;
21894;SDS011;11112;51.270;7.224;2023-06-14T14:52:14;7.85;;;1.70;;
21894;SDS011;11112;51.270;7.224;2023-06-14T14:54:41;2.08;;;1.60;;